Time;durP1;ratioP1;P1;durP2;ratioP2;P2;SDS_P1;SDS_P2;PMS_P1;PMS_P2;Temp;Humidity;BMP_temperature;BMP_pressure;BME280_temperature;BME280_humidity;BME280_pressure;Samples;Min_cycle;Max_cycle;Signal;HPM_P1;HPM_P2
2023/07/19 00:00:07;;;;;;;;;16.33;14.67;30.00;50.10;;;;;;111321;1240;53762;-68
2023/07/19 00:02:54;;;;;;;;;16.75;15.00;30.00;49.90;;;;;;111283;1240;47006;-68
2023/07/19 00:05:21;;;;;;;;;21.00;19.50;30.00;49.80;;;;;;111130;1238;49699;-67
2023/07/19 00:07:48;;;;;;;;;17.25;17.00;30.00;49.80;;;;;;111228;1243;51022;-66
2023/07/19 00:10:15;;;;;;;;;17.67;16.33;30.00;49.70;;;;;;111289;1243;54334;-68
2023/07/19 00:12:42;;;;;;;;;19.50;18.50;30.00;49.80;;;;;;111176;1244;44834;-69
2023/07/19 00:15:09;;;;;;;;;17.50;15.50;30.00;50.00;;;;;;111179;1240;49498;-68
2023/07/19 00:17:36;;;;;;;;;18.00;16.00;29.90;49.80;;;;;;111220;1244;50487;-67
2023/07/19 00:20:04;;;;;;;;;16.00;14.25;29.90;49.80;;;;;;111236;1243;54916;-68
2023/07/19 00:22:32;;;;;;;;;18.75;18.00;29.90;49.80;;;;;;111251;1240;44784;-68
2023/07/19 00:24:59;;;;;;;;;17.50;16.50;29.90;49.80;;;;;;111133;1240;50105;-69
2023/07/19 00:27:25;;;;;;;;;19.50;18.75;29.90;49.80;;;;;;111266;1244;49880;-68
2023/07/19 00:29:52;;;;;;;;;19.50;18.75;29.90;49.80;;;;;;111356;1240;53646;-69
2023/07/19 00:32:19;;;;;;;;;18.00;17.50;29.90;49.30;;;;;;111232;1243;45029;-69
2023/07/19 00:34:46;;;;;;;;;15.25;14.25;29.90;49.80;;;;;;111033;1243;49874;-69
2023/07/19 00:37:13;;;;;;;;;18.25;16.25;29.90;49.80;;;;;;111221;1241;49048;-67
2023/07/19 00:39:41;;;;;;;;;16.00;14.25;29.90;49.80;;;;;;111253;1240;54803;-67
2023/07/19 00:42:09;;;;;;;;;16.33;15.00;29.80;49.70;;;;;;111268;1238;44980;-69
2023/07/19 00:44:36;;;;;;;;;15.25;13.25;29.80;49.70;;;;;;111097;1240;49218;-68
2023/07/19 00:47:03;;;;;;;;;17.50;17.00;29.80;49.60;;;;;;111321;1243;49055;-70
2023/07/19 00:49:31;;;;;;;;;16.00;15.25;29.80;49.80;;;;;;111325;1238;53366;-68
2023/07/19 00:51:59;;;;;;;;;19.33;19.00;29.80;49.60;;;;;;111345;1244;44471;-69
2023/07/19 00:54:27;;;;;;;;;15.25;14.00;29.80;49.50;;;;;;111084;1243;49595;-68
2023/07/19 00:56:54;;;;;;;;;16.50;15.75;29.80;49.60;;;;;;111228;1244;49259;-69
2023/07/19 00:59:22;;;;;;;;;16.00;15.00;29.80;49.60;;;;;;111242;1243;54781;-68
2023/07/19 01:01:50;;;;;;;;;17.75;15.50;29.80;49.50;;;;;;111236;1240;44941;-68
2023/07/19 01:04:17;;;;;;;;;15.50;14.25;29.80;49.50;;;;;;111171;1238;48959;-67
2023/07/19 01:06:44;;;;;;;;;16.00;15.50;29.80;49.50;;;;;;111240;1243;51010;-68
2023/07/19 01:09:12;;;;;;;;;16.25;15.50;29.80;49.50;;;;;;111212;1241;54084;-67
2023/07/19 01:11:40;;;;;;;;;16.67;16.67;29.70;49.50;;;;;;111276;1243;45024;-67
2023/07/19 01:14:07;;;;;;;;;17.25;17.00;29.70;49.50;;;;;;111386;1238;49498;-68
2023/07/19 01:16:35;;;;;;;;;14.75;14.00;29.70;49.50;;;;;;111489;1244;49763;-68
2023/07/19 01:19:03;;;;;;;;;16.00;14.00;29.70;49.50;;;;;;111273;1238;54230;-68
2023/07/19 01:21:30;;;;;;;;;17.50;16.75;29.70;49.50;;;;;;111248;1238;45613;-67
2023/07/19 01:23:57;;;;;;;;;18.50;17.00;29.70;49.50;;;;;;111323;1238;49646;-67
2023/07/19 01:26:24;;;;;;;;;16.00;15.00;29.70;49.70;;;;;;111066;1240;50190;-67
2023/07/19 01:28:56;;;;;;;;;16.00;15.00;29.70;49.60;;;;;;111322;1244;53911;-68
2023/07/19 01:31:23;;;;;;;;;19.00;16.00;29.70;49.60;;;;;;111206;1244;45072;-67
2023/07/19 01:33:50;;;;;;;;;15.25;15.00;29.70;49.70;;;;;;111242;1241;49604;-67
2023/07/19 01:36:17;;;;;;;;;17.00;15.33;29.70;49.60;;;;;;111042;1243;50489;-68
2023/07/19 01:38:44;;;;;;;;;20.50;17.75;29.60;49.50;;;;;;111293;1243;53877;-67
2023/07/19 01:41:11;;;;;;;;;17.50;14.75;29.60;49.50;;;;;;111242;1238;45394;-67
2023/07/19 01:43:38;;;;;;;;;15.75;15.00;29.60;49.50;;;;;;111257;1238;49010;-68
2023/07/19 01:46:05;;;;;;;;;16.00;14.25;29.60;49.80;;;;;;111116;1238;49348;-67
2023/07/19 01:48:32;;;;;;;;;17.00;16.00;29.60;49.60;;;;;;111244;1238;53985;-68
2023/07/19 01:50:59;;;;;;;;;16.00;15.50;29.60;49.60;;;;;;111255;1238;44805;-67
2023/07/19 01:53:26;;;;;;;;;16.00;14.75;29.60;49.80;;;;;;111276;1240;49025;-68
2023/07/19 01:55:55;;;;;;;;;16.00;14.50;29.60;49.60;;;;;;111096;1238;49468;-67
2023/07/19 01:58:22;;;;;;;;;16.00;15.50;29.60;49.60;;;;;;111346;1243;53976;-68
2023/07/19 02:00:53;;;;;;;;;19.00;16.25;29.60;49.80;;;;;;111362;1243;44881;-69
2023/07/19 02:03:20;;;;;;;;;19.00;17.00;29.60;49.60;;;;;;111251;1241;49341;-67
2023/07/19 02:05:58;;;;;;;;;18.00;15.00;29.60;49.80;;;;;;111126;1238;50152;-67
2023/07/19 02:08:25;;;;;;;;;15.50;14.00;29.60;49.60;;;;;;111261;1243;53804;-67
2023/07/19 02:10:52;;;;;;;;;15.00;14.00;29.60;49.50;;;;;;111190;1243;44642;-67
2023/07/19 02:13:19;;;;;;;;;15.00;14.67;29.60;49.60;;;;;;111259;1238;48890;-68
2023/07/19 02:15:46;;;;;;;;;16.50;14.00;29.50;49.70;;;;;;111080;1241;49592;-68
2023/07/19 02:18:14;;;;;;;;;17.25;16.25;29.50;49.50;;;;;;111227;1238;54100;-68
2023/07/19 02:20:45;;;;;;;;;17.00;15.00;29.50;49.60;;;;;;111143;1243;44943;-67
2023/07/19 02:23:13;;;;;;;;;16.25;15.00;29.50;49.40;;;;;;111207;1238;49736;-68
2023/07/19 02:25:41;;;;;;;;;18.00;16.25;29.50;49.70;;;;;;111030;1243;48901;-68
2023/07/19 02:28:10;;;;;;;;;15.50;14.00;29.50;49.60;;;;;;111237;1243;53562;-67
2023/07/19 02:30:44;;;;;;;;;18.25;17.50;29.50;49.60;;;;;;111282;1243;44865;-68
2023/07/19 02:33:12;;;;;;;;;18.33;16.33;29.50;49.60;;;;;;111314;1238;49676;-67
2023/07/19 02:35:39;;;;;;;;;15.00;13.00;29.50;49.60;;;;;;111079;1240;49189;-68
2023/07/19 02:38:06;;;;;;;;;14.67;14.33;29.50;49.90;;;;;;110981;1244;53575;-66
2023/07/19 02:40:34;;;;;;;;;14.75;13.75;29.50;49.70;;;;;;111222;1239;45816;-68
2023/07/19 02:43:00;;;;;;;;;16.50;16.00;29.50;49.70;;;;;;111262;1243;49439;-68
2023/07/19 02:45:28;;;;;;;;;15.25;14.25;29.50;50.30;;;;;;111073;1244;49308;-68
2023/07/19 02:47:55;;;;;;;;;17.75;15.00;29.50;49.90;;;;;;111309;1239;53744;-68
2023/07/19 02:50:22;;;;;;;;;14.50;13.75;29.50;49.90;;;;;;111251;1240;44878;-67
2023/07/19 02:52:49;;;;;;;;;15.50;15.00;29.50;49.90;;;;;;111244;1239;49688;-68
2023/07/19 02:55:16;;;;;;;;;17.50;17.00;29.50;49.90;;;;;;111076;1243;48908;-65
2023/07/19 02:57:43;;;;;;;;;17.00;16.25;29.40;49.90;;;;;;111276;1238;53456;-66
2023/07/19 03:00:10;;;;;;;;;17.00;16.00;29.40;50.10;;;;;;111210;1242;44920;-66
2023/07/19 03:02:37;;;;;;;;;15.25;14.25;29.40;49.90;;;;;;111244;1240;50607;-66
2023/07/19 03:05:05;;;;;;;;;15.67;14.67;29.40;49.90;;;;;;111073;1243;49803;-67
2023/07/19 03:07:32;;;;;;;;;16.00;14.25;29.40;50.20;;;;;;111246;1244;53918;-67
2023/07/19 03:09:59;;;;;;;;;17.00;16.75;29.40;50.00;;;;;;111235;1243;44948;-67
2023/07/19 03:12:26;;;;;;;;;17.67;16.00;29.40;50.20;;;;;;111283;1243;49756;-68
2023/07/19 03:14:53;;;;;;;;;17.00;15.25;29.40;50.00;;;;;;111056;1243;49622;-68
2023/07/19 03:17:20;;;;;;;;;17.00;16.00;29.40;50.70;;;;;;111250;1243;55516;-66
2023/07/19 03:19:47;;;;;;;;;18.33;17.67;29.40;50.10;;;;;;111335;1243;45622;-68
2023/07/19 03:22:14;;;;;;;;;17.00;15.75;29.40;50.10;;;;;;111305;1240;49759;-67
2023/07/19 03:24:41;;;;;;;;;19.00;18.00;29.40;50.20;;;;;;111168;1243;49002;-67
2023/07/19 03:27:08;;;;;;;;;17.33;16.00;29.40;50.20;;;;;;111274;1243;54288;-66
2023/07/19 03:29:36;;;;;;;;;15.00;14.00;29.40;50.90;;;;;;111281;1244;44594;-66
2023/07/19 03:32:03;;;;;;;;;16.75;15.50;29.40;50.30;;;;;;111223;1239;49458;-67
2023/07/19 03:34:30;;;;;;;;;18.00;17.00;29.40;50.30;;;;;;111117;1241;49262;-67
2023/07/19 03:36:58;;;;;;;;;17.00;16.00;29.40;50.30;;;;;;111208;1241;54012;-66
2023/07/19 03:39:25;;;;;;;;;18.00;17.00;29.40;50.50;;;;;;111213;1239;44708;-66
2023/07/19 03:41:52;;;;;;;;;18.50;17.25;29.40;50.30;;;;;;111232;1243;49706;-67
2023/07/19 03:44:19;;;;;;;;;20.75;17.00;29.40;50.20;;;;;;111244;1243;49187;-67
2023/07/19 03:46:47;;;;;;;;;16.00;15.33;29.40;50.40;;;;;;111302;1243;53857;-67
2023/07/19 03:49:14;;;;;;;;;15.25;14.25;29.40;50.40;;;;;;111296;1244;45956;-67
2023/07/19 03:51:42;;;;;;;;;17.50;16.00;29.40;50.50;;;;;;111298;1238;49573;-67
2023/07/19 03:54:09;;;;;;;;;15.75;15.00;29.30;50.60;;;;;;111336;1239;49612;-67
2023/07/19 03:56:36;;;;;;;;;16.00;14.00;29.30;50.50;;;;;;111312;1238;54137;-69
2023/07/19 03:59:03;;;;;;;;;17.50;17.00;29.30;50.50;;;;;;111349;1244;45451;-68
2023/07/19 04:01:30;;;;;;;;;17.25;16.00;29.30;50.50;;;;;;111345;1243;49617;-70
2023/07/19 04:03:57;;;;;;;;;18.00;17.00;29.30;50.60;;;;;;111320;1241;50178;-69
2023/07/19 04:06:24;;;;;;;;;18.00;17.67;29.30;50.60;;;;;;111678;1243;53635;-68
2023/07/19 04:08:51;;;;;;;;;18.33;17.33;29.30;50.60;;;;;;111337;1238;45075;-68
2023/07/19 04:11:18;;;;;;;;;19.33;18.33;29.30;50.60;;;;;;111340;1243;49382;-67
2023/07/19 04:13:46;;;;;;;;;18.00;16.00;29.30;50.70;;;;;;111342;1243;49653;-68
2023/07/19 04:16:13;;;;;;;;;17.75;16.25;29.30;50.70;;;;;;111364;1244;54505;-68
2023/07/19 04:18:40;;;;;;;;;17.25;16.25;29.30;50.90;;;;;;111262;1244;44673;-69
2023/07/19 04:21:07;;;;;;;;;19.75;19.25;29.30;50.70;;;;;;111248;1243;50858;-68
2023/07/19 04:23:33;;;;;;;;;22.00;18.50;29.30;50.80;;;;;;111271;1243;49097;-69
2023/07/19 04:26:00;;;;;;;;;17.25;16.25;29.30;50.90;;;;;;111264;1244;54436;-68
2023/07/19 04:28:28;;;;;;;;;16.00;15.00;29.20;50.80;;;;;;111333;1243;45033;-69
2023/07/19 04:30:56;;;;;;;;;20.00;19.00;29.20;50.80;;;;;;111276;1243;50022;-67
2023/07/19 04:33:23;;;;;;;;;18.75;17.75;29.20;50.80;;;;;;111231;1244;49038;-69
2023/07/19 04:35:50;;;;;;;;;18.00;17.33;29.30;50.90;;;;;;111303;1243;54181;-70
2023/07/19 04:38:17;;;;;;;;;21.33;20.67;29.30;51.10;;;;;;111258;1240;44465;-74
2023/07/19 04:40:44;;;;;;;;;21.25;20.25;29.20;51.50;;;;;;111442;1240;49143;-70
2023/07/19 04:43:11;;;;;;;;;22.67;21.33;29.20;51.70;;;;;;111302;1241;49932;-66
2023/07/19 04:45:38;;;;;;;;;25.00;22.67;29.10;51.90;;;;;;111291;1240;54456;-70
2023/07/19 04:48:06;;;;;;;;;22.00;19.75;29.10;52.30;;;;;;111452;1240;45517;-72
2023/07/19 04:50:33;;;;;;;;;24.00;21.00;29.10;52.60;;;;;;111390;1239;49473;-67
2023/07/19 04:53:00;;;;;;;;;26.75;25.00;29.10;52.40;;;;;;111396;1242;49751;-71
2023/07/19 04:55:27;;;;;;;;;25.00;22.00;29.00;52.60;;;;;;111727;1244;54903;-71
2023/07/19 04:57:54;;;;;;;;;20.75;19.75;29.00;53.00;;;;;;110487;1239;1290427;-65
2023/07/19 05:00:22;;;;;;;;;24.75;23.75;29.00;52.70;;;;;;111328;1239;49321;-66
2023/07/19 05:02:49;;;;;;;;;23.75;20.50;29.10;52.70;;;;;;111265;1242;49607;-67
2023/07/19 05:05:16;;;;;;;;;45.00;34.50;29.10;52.60;;;;;;111358;1238;53803;-70
2023/07/19 05:07:43;;;;;;;;;47.25;37.25;29.10;52.60;;;;;;111246;1243;44691;-73
2023/07/19 05:10:10;;;;;;;;;43.00;33.00;29.20;53.30;;;;;;111401;1238;49139;-70
2023/07/19 05:12:37;;;;;;;;;43.33;35.00;29.20;54.00;;;;;;111216;1240;48997;-72
2023/07/19 05:15:05;;;;;;;;;55.75;41.50;29.20;53.70;;;;;;111535;1244;53790;-68
2023/07/19 05:17:32;;;;;;;;;47.75;37.50;29.20;53.40;;;;;;111285;1240;45023;-66
2023/07/19 05:19:59;;;;;;;;;36.75;29.00;29.30;53.10;;;;;;111278;1243;49480;-66
2023/07/19 05:22:26;;;;;;;;;30.25;28.50;29.30;52.90;;;;;;111326;1243;50306;-66
2023/07/19 05:24:53;;;;;;;;;30.00;26.00;29.30;52.90;;;;;;111216;1243;53545;-67
2023/07/19 05:27:20;;;;;;;;;32.33;27.33;29.20;52.80;;;;;;111297;1240;44747;-67
2023/07/19 05:29:47;;;;;;;;;31.67;27.67;29.20;52.70;;;;;;111315;1238;49751;-67
2023/07/19 05:32:14;;;;;;;;;30.00;27.00;29.20;52.20;;;;;;111298;1243;50448;-68
2023/07/19 05:34:41;;;;;;;;;31.75;28.00;29.20;52.70;;;;;;111294;1243;54715;-68
2023/07/19 05:37:08;;;;;;;;;29.50;27.00;29.20;52.70;;;;;;111310;1243;45397;-67
2023/07/19 05:39:35;;;;;;;;;28.67;25.33;29.20;53.00;;;;;;111287;1240;49246;-67
2023/07/19 05:42:03;;;;;;;;;26.25;24.25;29.10;52.80;;;;;;111304;1245;49786;-67
2023/07/19 05:44:29;;;;;;;;;26.50;24.75;29.10;53.00;;;;;;111308;1238;54611;-67
2023/07/19 05:46:56;;;;;;;;;24.67;23.33;29.10;53.10;;;;;;111325;1247;44993;-67
2023/07/19 05:49:23;;;;;;;;;26.00;24.00;29.10;53.30;;;;;;111258;1243;49908;-67
2023/07/19 05:51:50;;;;;;;;;29.25;27.00;29.00;53.10;;;;;;111321;1238;50407;-67
2023/07/19 05:54:19;;;;;;;;;28.50;26.50;29.00;53.20;;;;;;111328;1243;54427;-67
2023/07/19 05:56:46;;;;;;;;;31.00;27.00;29.00;53.40;;;;;;111345;1243;44744;-69
2023/07/19 05:59:13;;;;;;;;;24.33;22.33;29.00;53.70;;;;;;111382;1244;49580;-67
2023/07/19 06:01:40;;;;;;;;;27.00;25.25;29.00;53.60;;;;;;111376;1240;49967;-67
2023/07/19 06:04:08;;;;;;;;;28.00;26.25;29.00;53.70;;;;;;111296;1238;53280;-68
2023/07/19 06:06:35;;;;;;;;;31.25;28.25;29.00;53.90;;;;;;111510;1243;44604;-67
2023/07/19 06:09:05;;;;;;;;;26.00;24.00;29.00;53.90;;;;;;111303;1240;49297;-67
2023/07/19 06:11:33;;;;;;;;;25.50;24.50;29.00;53.90;;;;;;111326;1241;50476;-67
2023/07/19 06:14:01;;;;;;;;;23.25;21.75;29.00;53.90;;;;;;111252;1241;54327;-67
2023/07/19 06:16:28;;;;;;;;;24.00;23.25;29.00;53.90;;;;;;111312;1244;44600;-68
2023/07/19 06:18:55;;;;;;;;;31.25;26.75;29.00;53.90;;;;;;111310;1240;49588;-67
2023/07/19 06:21:24;;;;;;;;;25.50;24.00;29.00;53.90;;;;;;111322;1242;50143;-68
2023/07/19 06:23:51;;;;;;;;;26.00;22.33;29.00;53.80;;;;;;111329;1240;53796;-68
2023/07/19 06:26:18;;;;;;;;;26.33;24.33;29.00;53.80;;;;;;111324;1240;44421;-67
2023/07/19 06:28:45;;;;;;;;;28.50;25.25;29.00;53.80;;;;;;111229;1240;49136;-66
2023/07/19 06:31:12;;;;;;;;;25.00;22.75;29.00;53.80;;;;;;111312;1243;49746;-67
2023/07/19 06:33:39;;;;;;;;;27.25;25.25;29.00;54.00;;;;;;111245;1240;53348;-68
2023/07/19 06:36:06;;;;;;;;;28.50;25.25;29.00;53.70;;;;;;111292;1238;45255;-68
2023/07/19 06:38:36;;;;;;;;;26.75;24.00;29.00;53.80;;;;;;111251;1244;49820;-67
2023/07/19 06:41:04;;;;;;;;;28.50;27.00;29.00;53.60;;;;;;111315;1240;49172;-68
2023/07/19 06:43:31;;;;;;;;;27.25;24.50;29.00;53.60;;;;;;111229;1239;54482;-66
2023/07/19 06:45:58;;;;;;;;;27.00;24.25;29.00;53.60;;;;;;111348;1239;44870;-68
2023/07/19 06:48:25;;;;;;;;;26.50;25.00;29.00;53.60;;;;;;111330;1240;50464;-67
2023/07/19 06:50:52;;;;;;;;;25.50;23.50;29.10;53.60;;;;;;111314;1243;49657;-67
2023/07/19 06:53:19;;;;;;;;;25.25;23.50;29.10;54.10;;;;;;111342;1238;54286;-67
2023/07/19 06:55:46;;;;;;;;;28.00;26.00;29.10;53.60;;;;;;111312;1243;44867;-67
2023/07/19 06:58:13;;;;;;;;;26.75;24.00;29.10;53.60;;;;;;111314;1238;49496;-68
2023/07/19 07:00:41;;;;;;;;;26.67;25.33;29.10;53.60;;;;;;111326;1243;50138;-67
2023/07/19 07:03:08;;;;;;;;;25.25;23.25;29.20;53.60;;;;;;111300;1240;54830;-68
2023/07/19 07:05:35;;;;;;;;;23.33;21.33;29.20;53.60;;;;;;111313;1244;44614;-67
2023/07/19 07:08:02;;;;;;;;;27.00;25.00;29.20;53.60;;;;;;111276;1243;49694;-67
2023/07/19 07:10:29;;;;;;;;;25.33;24.00;29.20;53.80;;;;;;111250;1243;49475;-67
2023/07/19 07:12:56;;;;;;;;;23.00;22.25;29.30;53.80;;;;;;111238;1244;55451;-68
2023/07/19 07:15:23;;;;;;;;;23.50;21.50;29.30;53.60;;;;;;111304;1241;45040;-68
2023/07/19 07:17:49;;;;;;;;;25.75;24.00;29.30;53.50;;;;;;111277;1239;50411;-69
2023/07/19 07:20:17;;;;;;;;;26.00;22.75;29.40;53.50;;;;;;111293;1242;49136;-68
2023/07/19 07:22:44;;;;;;;;;27.67;26.00;29.40;53.40;;;;;;111434;1243;53313;-70
2023/07/19 07:25:12;;;;;;;;;28.00;27.00;29.40;54.00;;;;;;111369;1243;44561;-68
2023/07/19 07:27:39;;;;;;;;;27.00;23.75;29.40;53.50;;;;;;111316;1238;50094;-72
2023/07/19 07:30:09;;;;;;;;;25.75;23.25;29.50;53.50;;;;;;111290;1243;49615;-70
2023/07/19 07:32:37;;;;;;;;;23.25;22.50;29.50;53.50;;;;;;111473;1240;54184;-72
2023/07/19 07:35:06;;;;;;;;;29.50;27.75;29.50;53.40;;;;;;111960;1243;44892;-69
2023/07/19 07:37:34;;;;;;;;;24.00;23.75;29.50;53.40;;;;;;111665;1240;48979;-73
2023/07/19 07:40:01;;;;;;;;;25.00;24.00;29.60;53.40;;;;;;111767;1243;49629;-72
2023/07/19 07:42:28;;;;;;;;;23.75;22.75;29.70;53.30;;;;;;111708;1243;53872;-70
2023/07/19 07:44:55;;;;;;;;;25.67;24.00;29.70;53.20;;;;;;111990;1240;44971;-71
2023/07/19 07:47:22;;;;;;;;;24.00;21.00;29.80;53.30;;;;;;111797;1238;49243;-72
2023/07/19 07:49:50;;;;;;;;;25.00;24.00;29.90;53.10;;;;;;111707;1243;49926;-68
2023/07/19 07:52:17;;;;;;;;;25.00;24.00;29.90;53.00;;;;;;111747;1238;54641;-74
2023/07/19 07:54:44;;;;;;;;;24.67;22.33;30.00;53.40;;;;;;111998;1244;45526;-66
2023/07/19 07:57:11;;;;;;;;;22.25;22.00;30.00;52.90;;;;;;111614;1238;49744;-73
2023/07/19 07:59:38;;;;;;;;;24.00;23.00;30.10;53.20;;;;;;111878;1239;49732;-68
2023/07/19 08:02:06;;;;;;;;;25.00;23.75;30.10;52.70;;;;;;111484;1240;53439;-69
2023/07/19 08:04:33;;;;;;;;;27.00;25.00;30.20;53.20;;;;;;111670;1243;45602;-76
2023/07/19 08:07:00;;;;;;;;;26.00;23.75;30.20;52.80;;;;;;111445;1240;49471;-72
2023/07/19 08:09:27;;;;;;;;;26.00;23.00;30.20;52.60;;;;;;111387;1243;49228;-75
2023/07/19 08:11:56;;;;;;;;;25.25;22.75;30.20;52.20;;;;;;111393;1238;54686;-77
2023/07/19 08:14:23;;;;;;;;;25.50;24.75;30.20;52.70;;;;;;111648;1240;44186;-75
2023/07/19 08:16:51;;;;;;;;;24.00;23.25;30.20;52.80;;;;;;111496;1239;49549;-74
2023/07/19 08:19:18;;;;;;;;;25.00;24.00;30.30;52.80;;;;;;111470;1243;49413;-71
2023/07/19 08:21:45;;;;;;;;;26.25;24.00;30.30;52.80;;;;;;111315;1243;53998;-76
2023/07/19 08:24:12;;;;;;;;;24.00;21.75;30.30;52.80;;;;;;111613;1240;44420;-72
2023/07/19 08:26:39;;;;;;;;;25.00;22.00;30.30;52.50;;;;;;112097;1238;49619;-76
2023/07/19 08:29:07;;;;;;;;;25.33;20.33;30.30;52.70;;;;;;111903;1241;48854;-74
2023/07/19 08:31:34;;;;;;;;;25.00;24.67;30.40;52.90;;;;;;112087;1238;53762;-75
2023/07/19 08:34:01;;;;;;;;;26.00;25.00;30.50;52.30;;;;;;111955;1243;45828;-70
2023/07/19 08:36:28;;;;;;;;;21.25;20.75;30.50;52.30;;;;;;111742;1239;49305;-72
2023/07/19 08:38:56;;;;;;;;;21.50;21.25;30.60;52.20;;;;;;111377;1238;50409;-70
2023/07/19 08:41:27;;;;;;;;;22.00;21.67;30.60;52.10;;;;;;111407;1240;54917;-70
2023/07/19 08:43:55;;;;;;;;;24.00;23.00;30.60;52.20;;;;;;111425;1238;45660;-74
2023/07/19 08:46:22;;;;;;;;;23.67;23.00;30.60;52.10;;;;;;111667;1241;50127;-74
2023/07/19 08:48:49;;;;;;;;;23.50;21.25;30.60;52.10;;;;;;111379;1240;49628;-74
2023/07/19 08:51:18;;;;;;;;;24.75;23.50;30.70;52.30;;;;;;111701;1243;53857;-73
2023/07/19 08:53:45;;;;;;;;;26.00;24.50;30.70;52.70;;;;;;111631;1238;45058;-72
2023/07/19 08:56:13;;;;;;;;;26.00;24.00;30.70;52.00;;;;;;111792;1239;49832;-67
2023/07/19 08:58:40;;;;;;;;;27.25;25.25;30.80;52.10;;;;;;111399;1244;50009;-67
2023/07/19 09:01:08;;;;;;;;;26.00;24.00;30.80;52.10;;;;;;111434;1239;54701;-68
2023/07/19 09:03:35;;;;;;;;;23.50;20.50;30.80;52.00;;;;;;111407;1243;45055;-68
2023/07/19 09:06:02;;;;;;;;;21.25;20.25;30.80;52.30;;;;;;111737;1243;49639;-67
2023/07/19 09:08:37;;;;;;;;;23.75;22.25;30.80;52.10;;;;;;111347;1243;50058;-67
2023/07/19 09:11:04;;;;;;;;;25.00;23.00;30.80;52.10;;;;;;111424;1241;54443;-68
2023/07/19 09:13:32;;;;;;;;;24.00;22.50;30.80;52.10;;;;;;111417;1242;45165;-67
2023/07/19 09:16:02;;;;;;;;;26.00;24.00;30.80;52.30;;;;;;111613;1240;49557;-68
2023/07/19 09:18:37;;;;;;;;;26.33;24.00;30.80;52.20;;;;;;111349;1244;49457;-67
2023/07/19 09:21:04;;;;;;;;;25.00;22.75;30.80;52.30;;;;;;111503;1243;53986;-67
2023/07/19 09:23:37;;;;;;;;;25.00;23.00;30.90;52.10;;;;;;111662;1240;44900;-67
2023/07/19 09:26:05;;;;;;;;;25.00;23.67;30.90;52.30;;;;;;111934;1241;48875;-66
2023/07/19 09:28:34;;;;;;;;;23.67;22.00;31.00;52.20;;;;;;111621;1240;49481;-68
2023/07/19 09:31:03;;;;;;;;;24.00;21.25;31.00;52.00;;;;;;111655;1239;53610;-68
2023/07/19 09:33:30;;;;;;;;;22.75;22.25;31.00;52.20;;;;;;111636;1243;45409;-68
2023/07/19 09:35:57;;;;;;;;;22.25;19.75;31.10;52.00;;;;;;111748;1242;48813;-67
2023/07/19 09:38:25;;;;;;;;;25.00;23.00;31.10;51.80;;;;;;111449;1238;49623;-68
2023/07/19 09:40:54;;;;;;;;;22.75;20.50;31.20;52.00;;;;;;111401;1244;53620;-69
2023/07/19 09:43:21;;;;;;;;;24.00;23.00;31.20;51.90;;;;;;111525;1240;44529;-70
2023/07/19 09:45:50;;;;;;;;;23.00;22.00;31.20;52.30;;;;;;111738;1238;48996;-66
2023/07/19 09:48:18;;;;;;;;;22.00;21.00;31.20;52.10;;;;;;111427;1238;48787;-69
2023/07/19 09:50:49;;;;;;;;;21.25;18.00;31.30;52.00;;;;;;111438;1243;53990;-66
2023/07/19 09:53:16;;;;;;;;;18.00;17.00;31.30;52.20;;;;;;111462;1243;44148;-69
2023/07/19 09:55:47;;;;;;;;;19.50;19.00;31.30;52.30;;;;;;111649;1244;49595;-69
2023/07/19 09:58:15;;;;;;;;;20.50;18.25;31.30;52.10;;;;;;111443;1239;49587;-69
2023/07/19 10:00:42;;;;;;;;;21.50;19.00;31.30;52.00;;;;;;111344;1244;53612;-69
2023/07/19 10:03:17;;;;;;;;;22.50;20.00;31.40;52.10;;;;;;111442;1241;45116;-69
2023/07/19 10:05:45;;;;;;;;;25.75;23.75;31.40;52.00;;;;;;111720;1240;49281;-70
2023/07/19 10:08:15;;;;;;;;;24.00;22.00;31.40;52.20;;;;;;111426;1240;50206;-69
2023/07/19 10:10:42;;;;;;;;;22.75;21.75;31.40;52.20;;;;;;111434;1239;53618;-67
2023/07/19 10:13:10;;;;;;;;;24.00;22.25;31.40;52.10;;;;;;111416;1243;44736;-71
2023/07/19 10:15:37;;;;;;;;;22.50;20.25;31.40;52.40;;;;;;111673;1239;50453;-67
2023/07/19 10:18:11;;;;;;;;;23.00;21.25;31.50;52.80;;;;;;111401;1240;49961;-68
2023/07/19 10:20:40;;;;;;;;;24.00;21.00;31.50;52.50;;;;;;111376;1241;53040;-65
2023/07/19 10:23:08;;;;;;;;;22.00;22.00;31.50;52.90;;;;;;111382;1238;45117;-67
2023/07/19 10:25:48;;;;;;;;;21.00;20.00;31.60;52.30;;;;;;111732;1240;49551;-68
2023/07/19 10:28:26;;;;;;;;;21.25;20.25;31.60;52.30;;;;;;111363;1244;49735;-68
2023/07/19 10:30:55;;;;;;;;;21.75;21.25;31.70;53.40;;;;;;111385;1244;53156;-68
2023/07/19 10:33:27;;;;;;;;;22.00;20.25;31.70;52.90;;;;;;111432;1243;44466;-70
2023/07/19 10:35:59;;;;;;;;;23.00;20.25;31.70;52.30;;;;;;111669;1243;49108;-67
2023/07/19 10:38:28;;;;;;;;;25.00;22.75;31.70;52.30;;;;;;111511;1240;49110;-67
2023/07/19 10:40:56;;;;;;;;;24.50;23.50;31.80;53.30;;;;;;111598;1244;53634;-67
2023/07/19 10:43:25;;;;;;;;;21.25;20.25;31.80;52.40;;;;;;111582;1238;44701;-67
2023/07/19 10:45:53;;;;;;;;;21.75;20.00;31.80;52.20;;;;;;111743;1240;49409;-66
2023/07/19 10:48:27;;;;;;;;;23.33;21.33;31.80;52.60;;;;;;111401;1243;49961;-67
2023/07/19 10:51:05;;;;;;;;;24.00;22.00;31.90;52.00;;;;;;111404;1243;53523;-67
2023/07/19 10:53:46;;;;;;;;;23.25;22.00;31.90;52.00;;;;;;111429;1241;44831;-67
2023/07/19 10:56:16;;;;;;;;;23.33;22.00;31.90;51.90;;;;;;111730;1240;49411;-66
2023/07/19 10:58:43;;;;;;;;;20.00;19.25;31.90;51.80;;;;;;111421;1241;48971;-68
2023/07/19 11:01:10;;;;;;;;;22.33;22.00;31.90;51.90;;;;;;111387;1240;53499;-67
2023/07/19 11:03:38;;;;;;;;;22.75;21.00;32.00;51.70;;;;;;111411;1243;44741;-66
2023/07/19 11:06:08;;;;;;;;;21.50;20.75;32.00;51.80;;;;;;111782;1243;49145;-69
2023/07/19 11:08:35;;;;;;;;;21.00;21.00;31.90;51.70;;;;;;111411;1240;49808;-69
2023/07/19 11:11:02;;;;;;;;;21.75;20.75;32.00;51.80;;;;;;111372;1240;53443;-70
2023/07/19 11:13:30;;;;;;;;;21.25;20.25;32.00;51.70;;;;;;111235;1245;45293;-69
2023/07/19 11:16:01;;;;;;;;;24.67;23.00;32.00;51.70;;;;;;111694;1241;49607;-68
2023/07/19 11:18:38;;;;;;;;;22.00;20.50;32.00;51.70;;;;;;111526;1240;49774;-69
2023/07/19 11:21:06;;;;;;;;;22.00;20.25;32.10;51.70;;;;;;111387;1243;54217;-69
2023/07/19 11:23:41;;;;;;;;;23.75;22.50;32.10;51.40;;;;;;111382;1244;44306;-69
2023/07/19 11:26:12;;;;;;;;;21.25;19.50;32.10;51.30;;;;;;111697;1240;49153;-67
2023/07/19 11:28:44;;;;;;;;;23.00;21.00;32.10;51.30;;;;;;111394;1238;48909;-66
2023/07/19 11:31:33;;;;;;;;;22.33;21.33;32.10;51.70;;;;;;111467;1239;53430;-68
2023/07/19 11:34:06;;;;;;;;;19.00;18.50;32.20;51.50;;;;;;111380;1243;44835;-66
2023/07/19 11:36:34;;;;;;;;;21.75;20.00;32.20;51.70;;;;;;111644;1240;48956;-66
2023/07/19 11:39:02;;;;;;;;;22.67;21.00;32.20;51.40;;;;;;111393;1238;49468;-67
2023/07/19 11:41:32;;;;;;;;;22.00;19.50;32.20;51.30;;;;;;111378;1240;54236;-67
2023/07/19 11:43:59;;;;;;;;;22.25;19.25;32.30;51.30;;;;;;111375;1240;44781;-66
2023/07/19 11:46:26;;;;;;;;;22.33;22.00;32.20;51.20;;;;;;111684;1241;49536;-68
2023/07/19 11:48:53;;;;;;;;;22.75;19.75;32.30;51.40;;;;;;111465;1243;49185;-67
2023/07/19 11:51:21;;;;;;;;;20.00;18.00;32.30;51.60;;;;;;111354;1245;54113;-69
2023/07/19 11:53:48;;;;;;;;;18.25;16.25;32.20;51.40;;;;;;111432;1238;44618;-66
2023/07/19 11:56:15;;;;;;;;;21.00;19.00;32.30;51.80;;;;;;111651;1238;49157;-72
2023/07/19 11:58:42;;;;;;;;;18.00;16.00;32.30;52.00;;;;;;111308;1240;50380;-67
2023/07/19 12:01:09;;;;;;;;;17.00;17.00;32.30;51.60;;;;;;111467;1243;53732;-70
2023/07/19 12:03:36;;;;;;;;;19.50;18.00;32.30;51.50;;;;;;111514;1240;44404;-70
2023/07/19 12:06:03;;;;;;;;;20.00;19.00;32.30;51.40;;;;;;111735;1243;49931;-71
2023/07/19 12:08:30;;;;;;;;;20.67;19.00;32.30;51.30;;;;;;111530;1243;50326;-71
2023/07/19 12:10:57;;;;;;;;;17.00;16.00;32.40;51.20;;;;;;111508;1239;53270;-72
2023/07/19 12:13:24;;;;;;;;;19.00;17.75;32.40;51.20;;;;;;111485;1243;45834;-70
2023/07/19 12:15:51;;;;;;;;;17.75;16.75;32.40;50.80;;;;;;111750;1243;50522;-68
2023/07/19 12:18:18;;;;;;;;;15.75;15.50;32.50;50.70;;;;;;111520;1240;49120;-71
2023/07/19 12:20:45;;;;;;;;;16.00;15.00;32.50;50.70;;;;;;111417;1240;53275;-68